createdAt,value
2023-10-13T00:00:00.377Z,-47
2023-10-13T00:01:06.639Z,-44
2023-10-13T00:02:12.916Z,-45
2023-10-13T00:03:19.214Z,-44
2023-10-13T00:04:25.452Z,-44
2023-10-13T00:05:31.728Z,-45
2023-10-13T00:06:37.989Z,-45
2023-10-13T00:07:44.260Z,-44
2023-10-13T00:08:50.539Z,-45
2023-10-13T00:09:56.813Z,-43
2023-10-13T00:11:03.079Z,-44
2023-10-13T00:12:09.352Z,-46
2023-10-13T00:13:15.621Z,-45
2023-10-13T00:14:20.903Z,-46
2023-10-13T00:16:33.458Z,-43
2023-10-13T00:17:39.755Z,-42
2023-10-13T00:18:45.987Z,-45
2023-10-13T00:19:52.437Z,-46
2023-10-13T00:20:58.537Z,-45
2023-10-13T00:22:04.818Z,-44
2023-10-13T00:23:11.125Z,-47
2023-10-13T00:24:17.356Z,-44
2023-10-13T00:25:23.631Z,-44
2023-10-13T00:26:29.899Z,-44
2023-10-13T00:27:35.188Z,-44
2023-10-13T00:28:41.463Z,-44
2023-10-13T00:29:47.735Z,-43
2023-10-13T00:30:54.031Z,-44
2023-10-13T00:32:00.287Z,-43
2023-10-13T00:33:06.553Z,-44
2023-10-13T00:34:12.823Z,-43
2023-10-13T00:35:19.106Z,-47
2023-10-13T00:36:25.370Z,-43
2023-10-13T00:37:31.657Z,-43
2023-10-13T00:38:38.006Z,-44
2023-10-13T00:39:44.203Z,-44
2023-10-13T00:40:50.460Z,-43
2023-10-13T00:41:55.751Z,-43
2023-10-13T00:43:02.031Z,-43
2023-10-13T00:44:08.347Z,-46
2023-10-13T00:45:14.584Z,-43
2023-10-13T00:46:20.845Z,-43
2023-10-13T00:48:33.383Z,-43
2023-10-13T00:49:39.651Z,-43
2023-10-13T00:50:45.916Z,-43
2023-10-13T00:51:52.204Z,-43
2023-10-13T00:52:58.453Z,-44
2023-10-13T00:54:04.732Z,-44
2023-10-13T00:55:11.010Z,-43
2023-10-13T00:56:16.304Z,-43
2023-10-13T00:57:22.572Z,-43
2023-10-13T00:58:28.841Z,-44
2023-10-13T00:59:35.118Z,-43
2023-10-13T01:00:41.397Z,-43
2023-10-13T01:01:47.659Z,-44
2023-10-13T01:02:53.936Z,-44
2023-10-13T01:04:00.225Z,-44
2023-10-13T01:05:06.484Z,-43
2023-10-13T01:06:12.776Z,-43
2023-10-13T01:07:19.030Z,-45
2023-10-13T01:08:25.308Z,-43
2023-10-13T01:09:31.603Z,-43
2023-10-13T01:10:36.865Z,-45
2023-10-13T01:11:43.131Z,-44
2023-10-13T01:12:49.404Z,-44
2023-10-13T01:13:55.685Z,-44
2023-10-13T01:15:02.018Z,-44
2023-10-13T01:16:08.231Z,-43
2023-10-13T01:17:14.555Z,-45
2023-10-13T01:18:20.772Z,-44
2023-10-13T01:19:27.044Z,-43
2023-10-13T01:20:33.430Z,-44
2023-10-13T01:21:39.588Z,-44
2023-10-13T01:22:45.858Z,-43
2023-10-13T01:23:52.137Z,-44
2023-10-13T01:24:57.422Z,-43
2023-10-13T01:26:03.925Z,-45
2023-10-13T01:27:09.969Z,-44
2023-10-13T01:28:16.288Z,-42
2023-10-13T01:29:22.510Z,-44
2023-10-13T01:30:28.782Z,-43
2023-10-13T01:31:35.052Z,-43
2023-10-13T01:32:41.321Z,-44
2023-10-13T01:33:47.597Z,-43
2023-10-13T01:34:53.869Z,-44
2023-10-13T01:36:00.271Z,-45
2023-10-13T01:37:06.415Z,-45
2023-10-13T01:38:12.669Z,-46
2023-10-13T01:39:17.997Z,-44
2023-10-13T01:40:24.257Z,-44
2023-10-13T01:41:30.505Z,-45
2023-10-13T01:42:36.776Z,-45
2023-10-13T01:43:43.073Z,-46
2023-10-13T01:44:49.355Z,-45
2023-10-13T01:45:55.585Z,-44
2023-10-13T01:47:01.881Z,-46
2023-10-13T01:48:08.135Z,-45
2023-10-13T01:49:14.420Z,-45
2023-10-13T01:50:20.677Z,-45
2023-10-13T01:51:26.944Z,-45
2023-10-13T01:52:33.225Z,-41
2023-10-13T01:53:38.540Z,-44
2023-10-13T01:54:44.832Z,-45
2023-10-13T01:55:51.050Z,-45
2023-10-13T01:56:57.320Z,-45
2023-10-13T01:58:03.644Z,-46
2023-10-13T01:59:09.852Z,-46
2023-10-13T02:00:16.130Z,-45
2023-10-13T02:01:22.405Z,-45
2023-10-13T02:02:28.685Z,-44
2023-10-13T02:03:34.948Z,-44
2023-10-13T02:04:41.221Z,-46
2023-10-13T02:05:47.491Z,-45
2023-10-13T02:06:53.847Z,-46
2023-10-13T02:07:59.051Z,-45
2023-10-13T02:09:05.368Z,-46
2023-10-13T02:10:11.605Z,-45
2023-10-13T02:11:17.863Z,-46
2023-10-13T02:12:24.136Z,-46
2023-10-13T02:13:30.409Z,-44
2023-10-13T02:14:36.694Z,-46
2023-10-13T02:15:42.951Z,-44
2023-10-13T02:16:49.228Z,-45
2023-10-13T02:17:55.502Z,-45
2023-10-13T02:19:01.784Z,-47
2023-10-13T02:20:08.043Z,-46
2023-10-13T02:21:14.319Z,-45
2023-10-13T02:22:20.583Z,-45
2023-10-13T02:23:25.881Z,-46
2023-10-13T02:24:32.160Z,-45
2023-10-13T02:25:38.422Z,-44
2023-10-13T02:27:50.965Z,-45
2023-10-13T02:28:57.241Z,-45
2023-10-13T02:30:03.557Z,-43
2023-10-13T02:31:09.783Z,-46
2023-10-13T02:32:16.060Z,-45
2023-10-13T02:33:22.331Z,-45
2023-10-13T02:34:28.600Z,-45
2023-10-13T02:35:34.865Z,-46
2023-10-13T02:36:41.139Z,-43
2023-10-13T02:37:47.462Z,-45
2023-10-13T02:38:52.703Z,-45
2023-10-13T02:39:59.014Z,-44
2023-10-13T02:41:05.240Z,-45
2023-10-13T02:42:11.527Z,-46
2023-10-13T02:44:24.072Z,-44
2023-10-13T02:45:30.344Z,-45
2023-10-13T02:46:36.603Z,-45
2023-10-13T02:47:42.871Z,-45
2023-10-13T02:48:49.143Z,-45
2023-10-13T02:49:55.425Z,-45
2023-10-13T02:51:01.697Z,-45
2023-10-13T02:52:07.972Z,-45
2023-10-13T02:53:13.269Z,-45
2023-10-13T02:54:19.532Z,-44
2023-10-13T02:55:25.801Z,-45
2023-10-13T02:56:32.075Z,-44
2023-10-13T02:57:38.391Z,-44
2023-10-13T02:58:44.611Z,-44
2023-10-13T02:59:50.895Z,-45
2023-10-13T03:00:57.226Z,-45
2023-10-13T03:02:03.427Z,-44
2023-10-13T03:03:09.712Z,-44
2023-10-13T03:04:15.989Z,-44
2023-10-13T03:05:22.247Z,-44
2023-10-13T03:06:28.517Z,-45
2023-10-13T03:07:33.797Z,-44
2023-10-13T03:08:40.102Z,-44
2023-10-13T03:09:46.354Z,-44
2023-10-13T03:10:52.628Z,-45
2023-10-13T03:11:58.917Z,-43
2023-10-13T03:13:05.385Z,-44
2023-10-13T03:14:11.474Z,-44
2023-10-13T03:15:17.876Z,-44
2023-10-13T03:16:23.991Z,-46
2023-10-13T03:17:30.254Z,-45
2023-10-13T03:18:36.575Z,-44
2023-10-13T03:19:42.802Z,-46
2023-10-13T03:20:49.075Z,-44
2023-10-13T03:21:55.349Z,-45
2023-10-13T03:23:00.636Z,-44
2023-10-13T03:24:06.921Z,-44
2023-10-13T03:25:13.170Z,-45
2023-10-13T03:26:19.443Z,-45
2023-10-13T03:27:25.724Z,-44
2023-10-13T03:28:31.989Z,-44
2023-10-13T03:29:38.264Z,-45
2023-10-13T03:30:44.531Z,-46
2023-10-13T03:31:50.808Z,-45
2023-10-13T03:32:57.082Z,-44
2023-10-13T03:34:03.362Z,-44
2023-10-13T03:35:09.742Z,-43
2023-10-13T03:36:15.952Z,-45
2023-10-13T03:37:21.190Z,-45
2023-10-13T03:38:27.453Z,-46
2023-10-13T03:39:33.757Z,-46
2023-10-13T03:40:40.004Z,-46
2023-10-13T03:41:46.274Z,-46
2023-10-13T03:42:52.577Z,-45
2023-10-13T03:43:58.836Z,-45
2023-10-13T03:45:05.095Z,-44
2023-10-13T03:46:11.357Z,-44
2023-10-13T03:47:17.636Z,-44
2023-10-13T03:48:23.912Z,-45
2023-10-13T03:50:36.448Z,-44
2023-10-13T03:51:42.725Z,-43
2023-10-13T03:52:48.019Z,-45
2023-10-13T03:53:54.279Z,-44
2023-10-13T03:55:00.545Z,-45
2023-10-13T03:56:06.826Z,-44
2023-10-13T03:57:13.094Z,-46
2023-10-13T03:58:19.369Z,-45
2023-10-13T03:59:25.647Z,-46
2023-10-13T04:00:31.908Z,-45
2023-10-13T04:01:38.189Z,-44
2023-10-13T04:02:44.459Z,-46
2023-10-13T04:03:50.729Z,-45
2023-10-13T04:04:57.019Z,-45
2023-10-13T04:06:03.330Z,-45
2023-10-13T04:07:09.550Z,-45
2023-10-13T04:08:14.841Z,-43
2023-10-13T04:09:20.124Z,-45
2023-10-13T04:10:26.391Z,-45
2023-10-13T04:11:32.670Z,-43
2023-10-13T04:12:38.948Z,-45
2023-10-13T04:13:45.242Z,-44
2023-10-13T04:14:51.480Z,-45
2023-10-13T04:15:57.771Z,-45
2023-10-13T04:17:04.028Z,-46
2023-10-13T04:18:10.312Z,-46
2023-10-13T04:19:16.581Z,-46
2023-10-13T04:20:22.851Z,-44
2023-10-13T04:21:29.124Z,-46
2023-10-13T04:22:35.395Z,-45
2023-10-13T04:23:40.696Z,-44
2023-10-13T04:24:46.963Z,-45
2023-10-13T04:25:53.233Z,-43
2023-10-13T04:26:59.501Z,-45
2023-10-13T04:28:05.770Z,-45
2023-10-13T04:29:12.039Z,-45
2023-10-13T04:30:18.316Z,-45
2023-10-13T04:31:24.587Z,-45
2023-10-13T04:32:30.862Z,-46
2023-10-13T04:33:37.134Z,-46
2023-10-13T04:34:43.397Z,-46
2023-10-13T04:35:49.679Z,-46
2023-10-13T04:36:55.960Z,-46
2023-10-13T04:38:01.239Z,-46
2023-10-13T04:40:13.783Z,-44
2023-10-13T04:41:20.054Z,-45
2023-10-13T04:42:26.317Z,-45
2023-10-13T04:43:32.601Z,-44
2023-10-13T04:44:38.874Z,-45
2023-10-13T04:45:45.169Z,-46
2023-10-13T04:46:51.414Z,-46
2023-10-13T04:47:57.770Z,-45
2023-10-13T04:49:03.964Z,-45
2023-10-13T04:50:10.275Z,-45
2023-10-13T04:51:16.504Z,-41
2023-10-13T04:52:21.789Z,-44
2023-10-13T04:53:28.058Z,-46
2023-10-13T04:54:34.333Z,-44
2023-10-13T04:55:40.602Z,-44
2023-10-13T04:56:46.880Z,-46
2023-10-13T04:57:53.175Z,-46
2023-10-13T04:58:59.444Z,-45
2023-10-13T05:00:05.696Z,-45
2023-10-13T05:01:11.959Z,-45
2023-10-13T05:02:18.245Z,-48
2023-10-13T05:03:24.515Z,-45
2023-10-13T05:04:30.794Z,-45
2023-10-13T05:05:37.057Z,-45
2023-10-13T05:06:42.347Z,-45
2023-10-13T05:07:48.618Z,-42
2023-10-13T05:08:54.888Z,-42
2023-10-13T05:10:01.167Z,-46
2023-10-13T05:11:07.436Z,-45
2023-10-13T05:12:13.762Z,-45
2023-10-13T05:13:19.977Z,-43
2023-10-13T05:14:26.247Z,-45
2023-10-13T05:15:32.526Z,-44
2023-10-13T05:16:38.793Z,-44
2023-10-13T05:17:45.067Z,-44
2023-10-13T05:18:51.330Z,-45
2023-10-13T05:19:57.601Z,-43
2023-10-13T05:21:02.902Z,-45
2023-10-13T05:22:09.157Z,-44
2023-10-13T05:23:15.436Z,-45
2023-10-13T05:24:21.732Z,-45
2023-10-13T05:25:27.983Z,-46
2023-10-13T05:26:34.257Z,-43
2023-10-13T05:27:40.532Z,-45
2023-10-13T05:28:46.809Z,-45
2023-10-13T05:29:53.080Z,-45
2023-10-13T05:30:59.341Z,-45
2023-10-13T05:32:05.626Z,-44
2023-10-13T05:33:11.991Z,-44
2023-10-13T05:34:18.255Z,-44
2023-10-13T05:35:23.474Z,-44
2023-10-13T05:36:29.757Z,-44
2023-10-13T05:37:36.128Z,-44
2023-10-13T05:38:42.274Z,-43
2023-10-13T05:39:47.576Z,-44
2023-10-13T05:40:52.876Z,-43
2023-10-13T05:41:58.159Z,-46
2023-10-13T05:43:04.431Z,-44
2023-10-13T05:44:10.705Z,-44
2023-10-13T05:45:16.973Z,-43
2023-10-13T05:46:23.246Z,-44
2023-10-13T05:47:29.513Z,-44
2023-10-13T05:48:35.785Z,-44
2023-10-13T05:49:42.060Z,-44
2023-10-13T05:50:48.335Z,-44
2023-10-13T05:51:54.604Z,-44
2023-10-13T05:53:00.899Z,-44
2023-10-13T05:54:07.160Z,-45
2023-10-13T05:55:13.525Z,-44
2023-10-13T05:56:18.714Z,-44
2023-10-13T05:57:25.076Z,-46
2023-10-13T05:58:31.255Z,-46
2023-10-13T05:59:37.524Z,-44
2023-10-13T06:00:43.794Z,-45
2023-10-13T06:01:50.079Z,-44
2023-10-13T06:02:56.358Z,-44
2023-10-13T06:04:02.610Z,-46
2023-10-13T06:05:08.886Z,-44
2023-10-13T06:06:15.151Z,-45
2023-10-13T06:07:21.430Z,-45
2023-10-13T06:08:27.708Z,-45
2023-10-13T06:09:33.975Z,-45
2023-10-13T06:10:39.265Z,-45
2023-10-13T06:11:45.542Z,-46
2023-10-13T06:12:51.815Z,-41
2023-10-13T06:13:58.081Z,-44
2023-10-13T06:15:04.353Z,-45
2023-10-13T06:16:10.618Z,-46
2023-10-13T06:17:16.918Z,-45
2023-10-13T06:18:23.172Z,-44
2023-10-13T06:19:29.433Z,-46
2023-10-13T06:20:35.722Z,-45
2023-10-13T06:21:41.983Z,-46
2023-10-13T06:22:48.250Z,-46
2023-10-13T06:23:54.525Z,-46
2023-10-13T06:24:59.857Z,-45
2023-10-13T06:26:06.083Z,-45
2023-10-13T06:27:12.371Z,-44
2023-10-13T06:28:18.640Z,-46
2023-10-13T06:29:24.903Z,-45
2023-10-13T06:30:31.177Z,-43
2023-10-13T06:31:37.450Z,-46
2023-10-13T06:32:43.715Z,-44
2023-10-13T06:33:49.995Z,-45
2023-10-13T06:34:56.283Z,-45
2023-10-13T06:36:02.636Z,-45
2023-10-13T06:37:08.801Z,-46
2023-10-13T06:38:15.083Z,-45
2023-10-13T06:39:20.500Z,-46
2023-10-13T06:40:26.641Z,-46
2023-10-13T06:41:32.926Z,-45
2023-10-13T06:42:39.188Z,-45
2023-10-13T06:43:45.485Z,-46
2023-10-13T06:44:51.796Z,-46
2023-10-13T06:45:58.001Z,-45
2023-10-13T06:47:04.266Z,-45
2023-10-13T06:48:10.550Z,-46
2023-10-13T06:49:16.818Z,-45
2023-10-13T06:50:23.077Z,-45
2023-10-13T06:51:29.366Z,-45
2023-10-13T06:52:35.639Z,-44
2023-10-13T06:53:41.903Z,-45
2023-10-13T06:54:47.192Z,-45
2023-10-13T06:55:53.465Z,-45
2023-10-13T06:56:59.744Z,-44
2023-10-13T06:58:06.010Z,-44
2023-10-13T06:59:12.274Z,-46
2023-10-13T07:00:18.550Z,-45
2023-10-13T07:01:24.829Z,-43
2023-10-13T07:02:31.114Z,-43
2023-10-13T07:03:37.372Z,-44
2023-10-13T07:04:43.651Z,-43
2023-10-13T07:05:49.923Z,-44
2023-10-13T07:06:56.281Z,-44
2023-10-13T07:08:02.492Z,-43
2023-10-13T07:09:08.743Z,-46
2023-10-13T07:10:14.047Z,-43
2023-10-13T07:11:20.385Z,-44
2023-10-13T07:12:26.562Z,-46
2023-10-13T07:13:32.838Z,-43
2023-10-13T07:14:39.113Z,-43
2023-10-13T07:15:45.378Z,-44
2023-10-13T07:16:51.683Z,-43
2023-10-13T07:17:57.942Z,-42
2023-10-13T07:19:04.202Z,-43
2023-10-13T07:20:10.482Z,-44
2023-10-13T07:21:16.828Z,-43
2023-10-13T07:22:23.022Z,-43
2023-10-13T07:23:29.281Z,-43
2023-10-13T07:24:34.569Z,-43
2023-10-13T07:25:40.845Z,-43
2023-10-13T07:26:47.127Z,-43
2023-10-13T07:27:53.390Z,-43
2023-10-13T07:28:59.663Z,-43
2023-10-13T07:30:05.987Z,-42
2023-10-13T07:31:12.196Z,-40
2023-10-13T07:32:18.480Z,-43
2023-10-13T07:33:24.887Z,-43
2023-10-13T07:34:31.033Z,-43
2023-10-13T07:35:37.292Z,-43
2023-10-13T07:36:43.600Z,-42
2023-10-13T07:37:49.830Z,-43
2023-10-13T07:38:55.249Z,-43
2023-10-13T07:40:01.429Z,-42
2023-10-13T07:41:07.672Z,-43
2023-10-13T07:42:13.946Z,-44
2023-10-13T07:43:20.348Z,-43
2023-10-13T07:44:26.490Z,-43
2023-10-13T07:45:32.789Z,-42
2023-10-13T07:46:39.019Z,-40
2023-10-13T07:47:45.293Z,-42
2023-10-13T07:48:51.577Z,-42
2023-10-13T07:49:57.878Z,-42
2023-10-13T07:51:03.141Z,-43
2023-10-13T07:52:09.409Z,-41
2023-10-13T07:53:15.693Z,-42
2023-10-13T07:54:22.009Z,-42
2023-10-13T07:55:28.227Z,-43
2023-10-13T07:56:34.500Z,-42
2023-10-13T07:58:46.102Z,-42
2023-10-13T07:59:51.364Z,-41
2023-10-13T08:00:57.635Z,-42
2023-10-13T08:02:02.923Z,-43
2023-10-13T08:03:09.191Z,-41
2023-10-13T08:04:15.472Z,-42
2023-10-13T08:05:21.744Z,-41
2023-10-13T08:06:28.021Z,-41
2023-10-13T08:07:34.358Z,-42
2023-10-13T08:08:40.563Z,-41
2023-10-13T08:09:46.893Z,-43
2023-10-13T08:10:53.186Z,-42
2023-10-13T08:11:59.383Z,-41
2023-10-13T08:13:05.783Z,-42
2023-10-13T08:15:18.199Z,-42
2023-10-13T08:16:24.488Z,-42
2023-10-13T08:17:30.741Z,-43
2023-10-13T08:18:36.018Z,-41
2023-10-13T08:19:42.304Z,-42
2023-10-13T08:20:48.596Z,-41
2023-10-13T08:21:54.843Z,-42
2023-10-13T08:23:01.115Z,-40
2023-10-13T08:24:07.408Z,-42
2023-10-13T08:25:13.663Z,-40
2023-10-13T08:26:19.929Z,-43
2023-10-13T08:27:26.197Z,-41
2023-10-13T08:28:32.509Z,-42
2023-10-13T08:29:38.845Z,-43
2023-10-13T08:30:45.052Z,-40
2023-10-13T08:31:51.289Z,-42
2023-10-13T08:32:57.570Z,-41
2023-10-13T08:34:02.849Z,-42
2023-10-13T08:35:09.193Z,-42
2023-10-13T08:36:15.399Z,-41
2023-10-13T08:37:21.663Z,-42
2023-10-13T08:38:27.966Z,-42
2023-10-13T08:39:34.257Z,-42
2023-10-13T08:40:40.492Z,-42
2023-10-13T08:41:46.881Z,-42
2023-10-13T08:42:53.024Z,-40
2023-10-13T08:43:59.296Z,-41
2023-10-13T08:45:05.637Z,-45
2023-10-13T08:46:11.849Z,-41
2023-10-13T08:48:24.393Z,-41
2023-10-13T08:49:29.670Z,-42
2023-10-13T08:50:35.947Z,-41
2023-10-13T08:51:42.217Z,-42
2023-10-13T08:52:48.487Z,-40
2023-10-13T08:53:53.793Z,-40
2023-10-13T08:54:59.113Z,-40
2023-10-13T08:56:05.346Z,-40
2023-10-13T08:57:11.627Z,-40
2023-10-13T08:58:17.889Z,-42
2023-10-13T08:59:24.171Z,-41
2023-10-13T09:00:30.529Z,-41
2023-10-13T09:01:36.710Z,-41
2023-10-13T09:02:42.977Z,-41
2023-10-13T09:04:55.560Z,-40
2023-10-13T09:06:01.885Z,-41
2023-10-13T09:07:08.077Z,-41
2023-10-13T09:08:14.346Z,-43
2023-10-13T09:09:19.621Z,-41
2023-10-13T09:10:25.896Z,-40
2023-10-13T09:11:32.173Z,-45
2023-10-13T09:12:38.444Z,-42
2023-10-13T09:13:44.709Z,-41
2023-10-13T09:14:50.990Z,-41
2023-10-13T09:15:57.276Z,-40
2023-10-13T09:17:02.563Z,-41
2023-10-13T09:18:07.848Z,-41
2023-10-13T09:19:14.121Z,-41
2023-10-13T09:21:26.865Z,-42
2023-10-13T09:22:33.243Z,-40
2023-10-13T09:23:39.400Z,-40
2023-10-13T09:24:45.841Z,-41
2023-10-13T09:25:51.841Z,-41
2023-10-13T09:26:58.021Z,-40
2023-10-13T09:28:04.428Z,-41
2023-10-13T09:29:10.590Z,-42
2023-10-13T09:30:16.838Z,-41
2023-10-13T09:31:23.108Z,-40
2023-10-13T09:32:29.438Z,-41
2023-10-13T09:33:34.924Z,-41
2023-10-13T09:34:40.948Z,-43
2023-10-13T09:35:47.470Z,-39
2023-10-13T09:36:53.484Z,-40
2023-10-13T09:37:59.762Z,-41
2023-10-13T09:39:06.122Z,-40
2023-10-13T09:40:11.374Z,-40
2023-10-13T09:41:17.598Z,-40
2023-10-13T09:42:23.968Z,-40
2023-10-13T09:43:30.211Z,-40
2023-10-13T09:44:36.464Z,-40
2023-10-13T09:45:42.720Z,-39
2023-10-13T09:46:47.987Z,-39
2023-10-13T09:47:54.252Z,-39
2023-10-13T09:49:00.584Z,-38
2023-10-13T09:50:06.797Z,-38
2023-10-13T09:51:13.180Z,-38
2023-10-13T09:52:19.385Z,-38
2023-10-13T09:53:25.651Z,-37
2023-10-13T09:54:31.899Z,-36
2023-10-13T09:55:38.150Z,-37
2023-10-13T09:56:44.421Z,-37
2023-10-13T09:57:50.703Z,-35
2023-10-13T09:58:56.985Z,-37
2023-10-13T10:00:03.280Z,-36
2023-10-13T10:01:08.661Z,-36
2023-10-13T10:02:14.820Z,-36
2023-10-13T10:03:21.081Z,-35
2023-10-13T10:04:27.363Z,-35
2023-10-13T10:05:33.621Z,-35
2023-10-13T10:06:39.892Z,-37
2023-10-13T10:07:46.227Z,-35
2023-10-13T10:08:52.442Z,-36
2023-10-13T10:09:58.697Z,-35
2023-10-13T10:11:04.979Z,-34
2023-10-13T10:12:11.259Z,-35
2023-10-13T10:13:17.588Z,-34
2023-10-13T10:14:23.800Z,-35
2023-10-13T10:15:29.136Z,-34
2023-10-13T10:16:35.354Z,-34
2023-10-13T10:17:41.703Z,-35
2023-10-13T10:18:47.963Z,-34
2023-10-13T10:19:54.174Z,-35
2023-10-13T10:21:00.439Z,-37
2023-10-13T10:22:06.710Z,-37
2023-10-13T10:23:12.991Z,-37
2023-10-13T10:24:19.368Z,-37
2023-10-13T10:25:25.538Z,-37
2023-10-13T10:27:38.077Z,-37
2023-10-13T10:28:44.457Z,-37
2023-10-13T10:29:49.631Z,-38
2023-10-13T10:30:55.911Z,-39
2023-10-13T10:32:02.183Z,-38
2023-10-13T10:33:08.451Z,-39
2023-10-13T10:34:14.832Z,-40
2023-10-13T10:35:20.998Z,-39
2023-10-13T10:36:27.270Z,-39
2023-10-13T10:37:33.544Z,-41
2023-10-13T10:38:39.818Z,-40
2023-10-13T10:39:46.114Z,-42
2023-10-13T10:40:52.402Z,-41
2023-10-13T10:41:58.764Z,-40
2023-10-13T10:43:04.955Z,-41
2023-10-13T10:44:10.201Z,-38
2023-10-13T10:45:16.469Z,-40
2023-10-13T10:46:22.732Z,-42
2023-10-13T10:47:29.016Z,-41
2023-10-13T10:48:34.315Z,-40
2023-10-13T10:49:39.603Z,-41
2023-10-13T10:50:45.892Z,-41
2023-10-13T10:51:52.257Z,-42
2023-10-13T10:52:58.465Z,-42
2023-10-13T10:54:04.688Z,-41
2023-10-13T10:55:10.961Z,-42
2023-10-13T10:56:17.232Z,-43
2023-10-13T10:57:23.535Z,-43
2023-10-13T10:58:29.780Z,-42
2023-10-13T10:59:36.054Z,-42
2023-10-13T11:00:42.323Z,-41
2023-10-13T11:01:48.608Z,-43
2023-10-13T11:02:54.892Z,-43
2023-10-13T11:04:00.164Z,-43
2023-10-13T11:05:06.429Z,-43
2023-10-13T11:06:12.710Z,-43
2023-10-13T11:07:19.035Z,-42
2023-10-13T11:08:25.246Z,-43
2023-10-13T11:09:31.602Z,-43
2023-10-13T11:10:37.783Z,-43
2023-10-13T11:11:44.063Z,-42
2023-10-13T11:12:50.323Z,-43
2023-10-13T11:13:56.600Z,-43
2023-10-13T11:15:03.033Z,-44
2023-10-13T11:16:09.215Z,-43
2023-10-13T11:17:15.416Z,-43
2023-10-13T11:18:20.740Z,-43
2023-10-13T11:19:26.976Z,-43
2023-10-13T11:20:33.258Z,-42
2023-10-13T11:21:39.547Z,-42
2023-10-13T11:22:45.802Z,-43
2023-10-13T11:23:52.095Z,-43
2023-10-13T11:24:58.350Z,-43
2023-10-13T11:26:04.634Z,-42
2023-10-13T11:27:10.876Z,-43
2023-10-13T11:28:17.142Z,-43
2023-10-13T11:29:23.417Z,-43
2023-10-13T11:30:29.704Z,-43
2023-10-13T11:31:35.972Z,-43
2023-10-13T11:32:41.280Z,-44
2023-10-13T11:33:47.625Z,-45
2023-10-13T11:34:53.810Z,-43
2023-10-13T11:36:00.100Z,-42
2023-10-13T11:37:06.355Z,-43
2023-10-13T11:38:12.622Z,-43
2023-10-13T11:39:18.903Z,-43
2023-10-13T11:40:25.166Z,-43
2023-10-13T11:41:31.450Z,-43
2023-10-13T11:42:37.719Z,-43
2023-10-13T11:43:43.985Z,-42
2023-10-13T11:44:50.261Z,-43
2023-10-13T11:45:56.523Z,-42
2023-10-13T11:47:01.871Z,-41
2023-10-13T11:48:08.109Z,-42
2023-10-13T11:50:20.642Z,-42
2023-10-13T11:51:26.951Z,-43
2023-10-13T11:52:33.181Z,-43
2023-10-13T11:53:39.442Z,-41
2023-10-13T11:54:45.722Z,-43
2023-10-13T11:55:51.995Z,-42
2023-10-13T11:56:58.262Z,-43
2023-10-13T11:58:03.564Z,-43
2023-10-13T11:59:09.836Z,-42
2023-10-13T12:00:15.131Z,-43
2023-10-13T12:01:21.405Z,-43
2023-10-13T12:02:27.704Z,-43
2023-10-13T12:03:33.945Z,-41
2023-10-13T12:04:40.225Z,-42
2023-10-13T12:05:46.484Z,-43
2023-10-13T12:06:52.769Z,-41
2023-10-13T12:07:59.042Z,-42
2023-10-13T12:09:05.307Z,-43
2023-10-13T12:10:11.601Z,-41
2023-10-13T12:11:17.840Z,-42
2023-10-13T12:12:24.116Z,-41
2023-10-13T12:13:30.503Z,-43
2023-10-13T12:14:36.689Z,-42
2023-10-13T12:15:41.981Z,-41
2023-10-13T12:16:48.222Z,-41
2023-10-13T12:17:54.514Z,-41
2023-10-13T12:19:00.893Z,-42
2023-10-13T12:20:07.069Z,-42
2023-10-13T12:21:13.336Z,-41
2023-10-13T12:22:19.605Z,-41
2023-10-13T12:23:25.874Z,-41
2023-10-13T12:24:32.129Z,-42
2023-10-13T12:25:38.471Z,-42
2023-10-13T12:26:44.690Z,-42
2023-10-13T12:27:51.123Z,-42
2023-10-13T12:28:57.287Z,-42
2023-10-13T12:30:03.495Z,-41
2023-10-13T12:31:09.851Z,-41
2023-10-13T12:32:15.053Z,-41
2023-10-13T12:33:21.336Z,-40
2023-10-13T12:34:27.673Z,-41
2023-10-13T12:35:33.880Z,-38
2023-10-13T12:36:40.150Z,-41
2023-10-13T12:37:46.538Z,-42
2023-10-13T12:38:52.745Z,-42
2023-10-13T12:39:59.025Z,-42
2023-10-13T12:41:05.241Z,-42
2023-10-13T12:42:11.506Z,-42
2023-10-13T12:43:17.779Z,-41
2023-10-13T12:44:24.050Z,-42
2023-10-13T12:45:30.331Z,-42
2023-10-13T12:46:35.613Z,-41
2023-10-13T12:47:41.887Z,-42
2023-10-13T12:48:48.165Z,-40
2023-10-13T12:49:54.457Z,-42
2023-10-13T12:51:00.727Z,-41
2023-10-13T12:52:06.969Z,-43
2023-10-13T12:53:13.237Z,-41
2023-10-13T12:54:19.505Z,-42
2023-10-13T12:55:25.788Z,-43
2023-10-13T12:56:32.063Z,-43
2023-10-13T12:57:38.349Z,-43
2023-10-13T12:58:44.620Z,-43
2023-10-13T12:59:50.925Z,-43
2023-10-13T13:00:56.167Z,-43
2023-10-13T13:02:02.472Z,-43
2023-10-13T13:03:07.795Z,-45
2023-10-13T13:04:14.004Z,-42
2023-10-13T13:05:20.304Z,-43
2023-10-13T13:06:25.582Z,-44
2023-10-13T13:07:30.869Z,-43
2023-10-13T13:08:37.140Z,-43
2023-10-13T13:09:43.445Z,-43
2023-10-13T13:10:49.708Z,-44
2023-10-13T13:11:56.011Z,-44
2023-10-13T13:13:02.236Z,-45
2023-10-13T13:14:08.498Z,-45
2023-10-13T13:15:14.822Z,-46
2023-10-13T13:16:21.085Z,-45
2023-10-13T13:17:27.346Z,-46
2023-10-13T13:18:33.632Z,-44
2023-10-13T13:19:39.870Z,-46
2023-10-13T13:20:46.138Z,-45
2023-10-13T13:21:51.456Z,-46
2023-10-13T13:22:57.752Z,-44
2023-10-13T13:24:04.133Z,-45
2023-10-13T13:25:10.250Z,-45
2023-10-13T13:26:16.562Z,-46
2023-10-13T13:27:22.782Z,-46
2023-10-13T13:28:28.087Z,-46
2023-10-13T13:29:33.388Z,-46
2023-10-13T13:30:38.679Z,-46
2023-10-13T13:31:44.984Z,-48
2023-10-13T13:32:51.262Z,-47
2023-10-13T13:33:57.494Z,-47
2023-10-13T13:35:03.852Z,-49
2023-10-13T13:36:10.075Z,-49
2023-10-13T13:37:16.313Z,-50
2023-10-13T13:38:22.633Z,-50
2023-10-13T13:39:28.888Z,-50
2023-10-13T13:40:35.122Z,-50
2023-10-13T13:41:41.544Z,-50
2023-10-13T13:42:47.794Z,-50
2023-10-13T13:43:53.986Z,-49
2023-10-13T13:44:59.236Z,-49
2023-10-13T13:46:05.491Z,-50
2023-10-13T13:47:11.764Z,-49
2023-10-13T13:48:18.048Z,-48
2023-10-13T13:49:24.345Z,-49
2023-10-13T13:50:30.594Z,-49
2023-10-13T13:51:35.888Z,-48
2023-10-13T13:52:41.184Z,-46
2023-10-13T13:53:47.457Z,-49
2023-10-13T13:54:53.714Z,-47
2023-10-13T13:56:00.066Z,-49
2023-10-13T13:57:06.344Z,-50
2023-10-13T13:58:12.539Z,-48
2023-10-13T13:59:18.814Z,-50
2023-10-13T14:00:25.079Z,-49
2023-10-13T14:01:31.461Z,-48
2023-10-13T14:02:37.626Z,-48
2023-10-13T14:03:43.899Z,-48
2023-10-13T14:04:50.168Z,-49
2023-10-13T14:05:56.447Z,-48
2023-10-13T14:07:01.809Z,-49
2023-10-13T14:08:07.993Z,-49
2023-10-13T14:09:14.276Z,-50
2023-10-13T14:10:20.558Z,-50
2023-10-13T14:11:27.014Z,-50
2023-10-13T14:12:33.128Z,-51
2023-10-13T14:13:39.368Z,-50
2023-10-13T14:14:45.638Z,-53
2023-10-13T14:15:51.926Z,-52
2023-10-13T14:16:58.214Z,-49
2023-10-13T14:18:04.457Z,-53
2023-10-13T14:19:10.720Z,-54
2023-10-13T14:20:16.048Z,-52
2023-10-13T14:21:22.307Z,-53
2023-10-13T14:22:27.643Z,-53
2023-10-13T14:23:32.936Z,-54
2023-10-13T14:24:39.176Z,-54
2023-10-13T14:25:45.431Z,-54
2023-10-13T14:26:51.700Z,-53
2023-10-13T14:27:57.968Z,-54
2023-10-13T14:29:04.314Z,-56
2023-10-13T14:30:10.578Z,-54
2023-10-13T14:31:16.785Z,-53
2023-10-13T14:32:23.057Z,-53
2023-10-13T14:33:29.333Z,-54
2023-10-13T14:34:35.599Z,-54
2023-10-13T14:35:41.882Z,-50
2023-10-13T14:36:48.146Z,-53
2023-10-13T14:37:54.418Z,-55
2023-10-13T14:38:59.708Z,-56
2023-10-13T14:40:06.038Z,-54
2023-10-13T14:41:12.308Z,-55
2023-10-13T14:42:18.526Z,-54
2023-10-13T14:43:24.794Z,-53
2023-10-13T14:44:31.132Z,-53
2023-10-13T14:45:37.347Z,-54
2023-10-13T14:46:43.617Z,-58
2023-10-13T14:47:49.898Z,-54
2023-10-13T14:48:56.183Z,-53
2023-10-13T14:50:02.432Z,-52
2023-10-13T14:51:08.713Z,-55
2023-10-13T14:52:14.976Z,-55
2023-10-13T14:53:20.257Z,-53
2023-10-13T14:54:26.545Z,-54
2023-10-13T14:55:32.811Z,-53
2023-10-13T14:56:39.078Z,-54
2023-10-13T14:57:45.355Z,-54
2023-10-13T14:58:51.615Z,-56
2023-10-13T14:59:57.899Z,-53
2023-10-13T15:01:04.157Z,-52
2023-10-13T15:02:10.454Z,-54
2023-10-13T15:03:16.730Z,-56
2023-10-13T15:04:22.982Z,-53
2023-10-13T15:05:29.273Z,-55
2023-10-13T15:06:35.562Z,-53
2023-10-13T15:07:40.822Z,-52
2023-10-13T15:08:47.101Z,-53
2023-10-13T15:09:53.424Z,-53
2023-10-13T15:10:59.710Z,-53
2023-10-13T15:12:05.909Z,-55
2023-10-13T15:13:11.207Z,-53
2023-10-13T15:14:16.591Z,-53
2023-10-13T15:15:22.781Z,-54
2023-10-13T15:16:29.046Z,-54
2023-10-13T15:17:35.339Z,-55
2023-10-13T15:18:41.591Z,-53
2023-10-13T15:19:47.894Z,-55
2023-10-13T15:20:54.128Z,-53
2023-10-13T15:22:00.435Z,-53
2023-10-13T15:23:06.676Z,-54
2023-10-13T15:24:13.097Z,-53
2023-10-13T15:25:19.223Z,-52